sensor_id;sensor_type;location;lat;lon;timestamp;pressure;altitude;pressure_sealevel;temperature;humidity
12879;BME280;20617;49.476;10.986;2022-07-30T00:00:16;98159.81;;;21.35;72.55
12879;BME280;20617;49.476;10.986;2022-07-30T00:02:26;98156.78;;;21.40;72.11
12879;BME280;20617;49.476;10.986;2022-07-30T00:04:30;98155.97;;;21.39;71.95
12879;BME280;20617;49.476;10.986;2022-07-30T00:06:35;98154.53;;;21.35;71.32
12879;BME280;20617;49.476;10.986;2022-07-30T00:08:43;98159.38;;;21.30;70.90
12879;BME280;20617;49.476;10.986;2022-07-30T00:10:48;98154.47;;;21.16;71.13
12879;BME280;20617;49.476;10.986;2022-07-30T00:12:53;98154.28;;;21.08;71.89
12879;BME280;20617;49.476;10.986;2022-07-30T00:14:57;98159.97;;;21.03;71.62
12879;BME280;20617;49.476;10.986;2022-07-30T00:17:03;98156.06;;;20.97;71.96
12879;BME280;20617;49.476;10.986;2022-07-30T00:19:07;98153.81;;;20.93;72.08
12879;BME280;20617;49.476;10.986;2022-07-30T00:21:13;98153.91;;;20.91;72.28
12879;BME280;20617;49.476;10.986;2022-07-30T00:23:38;98155.63;;;20.92;71.77
12879;BME280;20617;49.476;10.986;2022-07-30T00:26:04;98150.16;;;20.94;71.80
12879;BME280;20617;49.476;10.986;2022-07-30T00:28:09;98152.13;;;20.92;71.94
12879;BME280;20617;49.476;10.986;2022-07-30T00:30:14;98150.03;;;20.86;72.02
12879;BME280;20617;49.476;10.986;2022-07-30T00:32:19;98149.69;;;20.79;72.17
12879;BME280;20617;49.476;10.986;2022-07-30T00:34:23;98153.84;;;20.72;72.58
12879;BME280;20617;49.476;10.986;2022-07-30T00:36:29;98154.09;;;20.69;72.26
12879;BME280;20617;49.476;10.986;2022-07-30T00:38:36;98150.84;;;20.65;72.53
12879;BME280;20617;49.476;10.986;2022-07-30T00:40:41;98147.63;;;20.62;72.55
12879;BME280;20617;49.476;10.986;2022-07-30T00:42:48;98159.19;;;20.61;72.95
12879;BME280;20617;49.476;10.986;2022-07-30T00:44:53;98155.84;;;20.58;72.78
12879;BME280;20617;49.476;10.986;2022-07-30T00:46:58;98152.47;;;20.56;72.68
12879;BME280;20617;49.476;10.986;2022-07-30T00:49:03;98152.75;;;20.53;73.12
12879;BME280;20617;49.476;10.986;2022-07-30T00:51:10;98157.41;;;20.50;73.11
12879;BME280;20617;49.476;10.986;2022-07-30T00:53:14;98155.88;;;20.47;73.20
12879;BME280;20617;49.476;10.986;2022-07-30T00:55:19;98172.97;;;20.43;72.76
12879;BME280;20617;49.476;10.986;2022-07-30T00:57:24;98171.09;;;20.34;72.96
12879;BME280;20617;49.476;10.986;2022-07-30T00:59:31;98180.63;;;20.25;73.56
12879;BME280;20617;49.476;10.986;2022-07-30T01:01:36;98166.63;;;20.13;74.14
12879;BME280;20617;49.476;10.986;2022-07-30T01:03:40;98172.88;;;20.12;74.37
12879;BME280;20617;49.476;10.986;2022-07-30T01:05:45;98172.19;;;20.10;73.97
12879;BME280;20617;49.476;10.986;2022-07-30T01:07:50;98173.38;;;20.06;74.47
12879;BME280;20617;49.476;10.986;2022-07-30T01:09:55;98163.72;;;19.96;74.13
12879;BME280;20617;49.476;10.986;2022-07-30T01:12:00;98173.81;;;19.90;74.60
12879;BME280;20617;49.476;10.986;2022-07-30T01:14:07;98169.97;;;19.83;74.57
12879;BME280;20617;49.476;10.986;2022-07-30T01:16:14;98169.97;;;19.83;74.62
12879;BME280;20617;49.476;10.986;2022-07-30T01:18:19;98169.97;;;19.83;75.05
12879;BME280;20617;49.476;10.986;2022-07-30T01:20:47;98169.13;;;19.83;75.10
12879;BME280;20617;49.476;10.986;2022-07-30T01:23:00;98167.94;;;19.87;74.94
12879;BME280;20617;49.476;10.986;2022-07-30T01:25:11;98173.66;;;19.92;74.38
12879;BME280;20617;49.476;10.986;2022-07-30T01:27:20;98183.88;;;19.97;74.85
12879;BME280;20617;49.476;10.986;2022-07-30T01:29:26;98167.75;;;20.00;74.71
12879;BME280;20617;49.476;10.986;2022-07-30T01:31:31;98165.84;;;20.02;74.22
12879;BME280;20617;49.476;10.986;2022-07-30T01:33:38;98175.59;;;20.01;74.34
12879;BME280;20617;49.476;10.986;2022-07-30T01:35:44;98171.50;;;19.97;74.51
12879;BME280;20617;49.476;10.986;2022-07-30T01:37:49;98177.03;;;19.94;74.96
12879;BME280;20617;49.476;10.986;2022-07-30T01:39:55;98170.09;;;19.93;75.29
12879;BME280;20617;49.476;10.986;2022-07-30T01:42:00;98167.22;;;19.85;75.73
12879;BME280;20617;49.476;10.986;2022-07-30T01:44:11;98178.97;;;19.81;75.92
12879;BME280;20617;49.476;10.986;2022-07-30T01:46:24;98183.94;;;19.74;76.00
12879;BME280;20617;49.476;10.986;2022-07-30T01:48:31;98181.75;;;19.79;76.22
12879;BME280;20617;49.476;10.986;2022-07-30T01:50:37;98185.38;;;19.78;76.29
12879;BME280;20617;49.476;10.986;2022-07-30T01:52:47;98190.16;;;19.84;76.20
12879;BME280;20617;49.476;10.986;2022-07-30T01:54:53;98193.50;;;19.86;76.07
12879;BME280;20617;49.476;10.986;2022-07-30T01:57:00;98193.97;;;19.92;75.60
12879;BME280;20617;49.476;10.986;2022-07-30T01:59:05;98191.56;;;19.88;75.83
12879;BME280;20617;49.476;10.986;2022-07-30T02:01:17;98198.88;;;19.96;75.82
12879;BME280;20617;49.476;10.986;2022-07-30T02:03:22;98192.63;;;19.97;76.00
12879;BME280;20617;49.476;10.986;2022-07-30T02:05:28;98183.50;;;20.01;75.42
12879;BME280;20617;49.476;10.986;2022-07-30T02:07:35;98183.28;;;19.93;76.06
12879;BME280;20617;49.476;10.986;2022-07-30T02:09:44;98186.03;;;19.92;76.23
12879;BME280;20617;49.476;10.986;2022-07-30T02:11:55;98191.91;;;19.95;75.92
12879;BME280;20617;49.476;10.986;2022-07-30T02:14:16;98187.25;;;19.99;75.83
12879;BME280;20617;49.476;10.986;2022-07-30T02:16:25;98184.34;;;20.02;75.83
12879;BME280;20617;49.476;10.986;2022-07-30T02:18:31;98183.72;;;19.98;75.66
12879;BME280;20617;49.476;10.986;2022-07-30T02:20:41;98188.19;;;19.98;76.00
12879;BME280;20617;49.476;10.986;2022-07-30T02:22:50;98187.94;;;20.01;76.02
12879;BME280;20617;49.476;10.986;2022-07-30T02:24:57;98182.84;;;20.09;75.87
12879;BME280;20617;49.476;10.986;2022-07-30T02:27:05;98180.53;;;20.16;75.54
12879;BME280;20617;49.476;10.986;2022-07-30T02:29:12;98183.78;;;20.19;75.37
12879;BME280;20617;49.476;10.986;2022-07-30T02:31:23;98183.06;;;20.17;74.88
12879;BME280;20617;49.476;10.986;2022-07-30T02:33:32;98179.38;;;20.08;75.63
12879;BME280;20617;49.476;10.986;2022-07-30T02:35:47;98183.13;;;20.06;75.68
12879;BME280;20617;49.476;10.986;2022-07-30T02:37:53;98172.06;;;20.01;75.70
12879;BME280;20617;49.476;10.986;2022-07-30T02:39:58;98181.22;;;19.97;76.00
12879;BME280;20617;49.476;10.986;2022-07-30T02:42:04;98182.22;;;19.84;76.59
12879;BME280;20617;49.476;10.986;2022-07-30T02:44:10;98185.13;;;19.81;76.77
12879;BME280;20617;49.476;10.986;2022-07-30T02:46:15;98179.22;;;19.78;76.71
12879;BME280;20617;49.476;10.986;2022-07-30T02:48:42;98178.91;;;19.71;77.17
12879;BME280;20617;49.476;10.986;2022-07-30T02:50:49;98185.97;;;19.71;76.86
12879;BME280;20617;49.476;10.986;2022-07-30T02:52:55;98174.69;;;19.68;76.77
12879;BME280;20617;49.476;10.986;2022-07-30T02:55:01;98175.53;;;19.69;76.75
12879;BME280;20617;49.476;10.986;2022-07-30T02:57:06;98178.31;;;19.67;76.38
12879;BME280;20617;49.476;10.986;2022-07-30T02:59:12;98177.47;;;19.67;75.92
12879;BME280;20617;49.476;10.986;2022-07-30T03:01:17;98175.66;;;19.67;76.22
12879;BME280;20617;49.476;10.986;2022-07-30T03:03:24;98174.00;;;19.66;75.50
12879;BME280;20617;49.476;10.986;2022-07-30T03:05:32;98179.28;;;19.66;75.46
12879;BME280;20617;49.476;10.986;2022-07-30T03:07:37;98178.78;;;19.61;75.39
12879;BME280;20617;49.476;10.986;2022-07-30T03:09:43;98173.50;;;19.61;75.67
12879;BME280;20617;49.476;10.986;2022-07-30T03:11:53;98177.56;;;19.54;75.02
12879;BME280;20617;49.476;10.986;2022-07-30T03:13:59;98178.66;;;19.52;75.00
12879;BME280;20617;49.476;10.986;2022-07-30T03:16:05;98178.06;;;19.48;75.42
12879;BME280;20617;49.476;10.986;2022-07-30T03:18:11;98169.56;;;19.44;75.51
12879;BME280;20617;49.476;10.986;2022-07-30T03:20:17;98174.94;;;19.43;75.54
12879;BME280;20617;49.476;10.986;2022-07-30T03:22:25;98177.13;;;19.38;75.83
12879;BME280;20617;49.476;10.986;2022-07-30T03:24:34;98176.50;;;19.34;75.44
12879;BME280;20617;49.476;10.986;2022-07-30T03:26:44;98175.94;;;19.31;75.80
12879;BME280;20617;49.476;10.986;2022-07-30T03:28:49;98178.94;;;19.26;75.29
12879;BME280;20617;49.476;10.986;2022-07-30T03:30:54;98184.22;;;19.26;75.53
12879;BME280;20617;49.476;10.986;2022-07-30T03:33:00;98186.25;;;19.22;74.88
12879;BME280;20617;49.476;10.986;2022-07-30T03:35:05;98190.00;;;19.20;75.06
12879;BME280;20617;49.476;10.986;2022-07-30T03:37:18;98181.44;;;19.16;74.80
12879;BME280;20617;49.476;10.986;2022-07-30T03:39:26;98181.44;;;19.16;74.75
12879;BME280;20617;49.476;10.986;2022-07-30T03:41:31;98183.25;;;19.16;74.19
12879;BME280;20617;49.476;10.986;2022-07-30T03:43:40;98182.78;;;19.11;74.39
12879;BME280;20617;49.476;10.986;2022-07-30T03:45:45;98189.75;;;19.12;74.22
12879;BME280;20617;49.476;10.986;2022-07-30T03:47:53;98198.97;;;19.06;74.63
12879;BME280;20617;49.476;10.986;2022-07-30T03:49:59;98189.25;;;19.07;74.72
12879;BME280;20617;49.476;10.986;2022-07-30T03:52:06;98198.25;;;19.04;74.62
12879;BME280;20617;49.476;10.986;2022-07-30T03:54:11;98199.22;;;19.03;74.83
12879;BME280;20617;49.476;10.986;2022-07-30T03:56:45;98197.66;;;19.00;74.84
12879;BME280;20617;49.476;10.986;2022-07-30T03:59:04;98197.06;;;18.97;74.87
12879;BME280;20617;49.476;10.986;2022-07-30T04:01:12;98205.91;;;18.96;75.02
12879;BME280;20617;49.476;10.986;2022-07-30T04:03:24;98207.59;;;18.97;75.26
12879;BME280;20617;49.476;10.986;2022-07-30T04:05:33;98210.72;;;19.02;75.19
12879;BME280;20617;49.476;10.986;2022-07-30T04:07:44;98201.63;;;19.06;74.87
12879;BME280;20617;49.476;10.986;2022-07-30T04:09:53;98202.34;;;19.08;74.71
12879;BME280;20617;49.476;10.986;2022-07-30T04:12:10;98204.75;;;19.11;74.74
12879;BME280;20617;49.476;10.986;2022-07-30T04:14:16;98204.00;;;19.09;74.63
12879;BME280;20617;49.476;10.986;2022-07-30T04:16:22;98217.31;;;19.08;74.75
12879;BME280;20617;49.476;10.986;2022-07-30T04:18:46;98218.63;;;19.02;74.61
12879;BME280;20617;49.476;10.986;2022-07-30T04:20:52;98225.47;;;19.05;74.53
12879;BME280;20617;49.476;10.986;2022-07-30T04:22:57;98225.00;;;19.11;74.56
12879;BME280;20617;49.476;10.986;2022-07-30T04:25:03;98230.66;;;19.17;74.53
12879;BME280;20617;49.476;10.986;2022-07-30T04:27:11;98225.97;;;19.21;73.88
12879;BME280;20617;49.476;10.986;2022-07-30T04:29:15;98234.97;;;19.18;74.19
12879;BME280;20617;49.476;10.986;2022-07-30T04:31:25;98235.31;;;19.14;73.75
12879;BME280;20617;49.476;10.986;2022-07-30T04:33:40;98234.22;;;19.05;74.30
12879;BME280;20617;49.476;10.986;2022-07-30T04:35:50;98235.31;;;19.03;74.75
12879;BME280;20617;49.476;10.986;2022-07-30T04:38:05;98230.28;;;18.99;74.93
12879;BME280;20617;49.476;10.986;2022-07-30T04:40:11;98235.91;;;18.95;74.93
12879;BME280;20617;49.476;10.986;2022-07-30T04:42:18;98241.41;;;18.92;75.26
12879;BME280;20617;49.476;10.986;2022-07-30T04:44:35;98238.63;;;18.93;75.32
12879;BME280;20617;49.476;10.986;2022-07-30T04:46:52;98237.09;;;18.91;75.87
12879;BME280;20617;49.476;10.986;2022-07-30T04:48:57;98239.75;;;18.91;75.71
12879;BME280;20617;49.476;10.986;2022-07-30T04:51:07;98243.69;;;18.96;75.56
12879;BME280;20617;49.476;10.986;2022-07-30T04:53:13;98245.38;;;18.97;75.64
12879;BME280;20617;49.476;10.986;2022-07-30T04:55:27;98241.41;;;18.92;76.24
12879;BME280;20617;49.476;10.986;2022-07-30T04:57:35;98242.25;;;18.92;76.22
12879;BME280;20617;49.476;10.986;2022-07-30T04:59:41;98246.41;;;18.84;76.38
12879;BME280;20617;49.476;10.986;2022-07-30T05:01:47;98251.59;;;18.85;76.82
12879;BME280;20617;49.476;10.986;2022-07-30T05:03:53;98254.00;;;18.88;76.73
12879;BME280;20617;49.476;10.986;2022-07-30T05:05:58;98252.78;;;18.92;76.59
12879;BME280;20617;49.476;10.986;2022-07-30T05:08:08;98259.00;;;18.80;77.09
12879;BME280;20617;49.476;10.986;2022-07-30T05:10:13;98263.63;;;18.65;78.06
12879;BME280;20617;49.476;10.986;2022-07-30T05:12:18;98264.13;;;18.46;78.72
12879;BME280;20617;49.476;10.986;2022-07-30T05:14:25;98267.81;;;18.32;80.00
12879;BME280;20617;49.476;10.986;2022-07-30T05:16:30;98257.28;;;18.44;79.73
12879;BME280;20617;49.476;10.986;2022-07-30T05:18:36;98259.03;;;18.32;79.64
12879;BME280;20617;49.476;10.986;2022-07-30T05:20:41;98258.94;;;18.33;79.82
12879;BME280;20617;49.476;10.986;2022-07-30T05:22:53;98262.91;;;18.39;79.51
12879;BME280;20617;49.476;10.986;2022-07-30T05:24:58;98259.81;;;18.45;79.33
12879;BME280;20617;49.476;10.986;2022-07-30T05:27:16;98260.69;;;18.57;78.97
12879;BME280;20617;49.476;10.986;2022-07-30T05:29:20;98263.47;;;18.67;78.37
12879;BME280;20617;49.476;10.986;2022-07-30T05:31:34;98268.75;;;18.67;78.28
12879;BME280;20617;49.476;10.986;2022-07-30T05:33:40;98277.31;;;18.70;78.31
12879;BME280;20617;49.476;10.986;2022-07-30T05:35:49;98277.81;;;18.75;77.76
12879;BME280;20617;49.476;10.986;2022-07-30T05:37:55;98281.44;;;18.86;77.88
12879;BME280;20617;49.476;10.986;2022-07-30T05:40:02;98283.84;;;18.89;77.44
12879;BME280;20617;49.476;10.986;2022-07-30T05:42:24;98279.06;;;19.05;76.90
12879;BME280;20617;49.476;10.986;2022-07-30T05:44:31;98283.41;;;19.06;75.62
12879;BME280;20617;49.476;10.986;2022-07-30T05:46:39;98290.59;;;19.04;76.34
12879;BME280;20617;49.476;10.986;2022-07-30T05:48:44;98287.25;;;19.13;76.07
12879;BME280;20617;49.476;10.986;2022-07-30T05:50:49;98293.38;;;19.25;75.85
12879;BME280;20617;49.476;10.986;2022-07-30T05:52:54;98294.81;;;19.18;75.43
12879;BME280;20617;49.476;10.986;2022-07-30T05:55:17;98293.50;;;19.23;75.68
12879;BME280;20617;49.476;10.986;2022-07-30T05:57:41;98293.75;;;19.32;74.99
12879;BME280;20617;49.476;10.986;2022-07-30T05:59:46;98298.66;;;19.36;74.43
12879;BME280;20617;49.476;10.986;2022-07-30T06:02:04;98290.25;;;19.31;73.97
12879;BME280;20617;49.476;10.986;2022-07-30T06:04:29;98294.69;;;19.31;74.13
12879;BME280;20617;49.476;10.986;2022-07-30T06:06:37;98291.34;;;19.40;73.86
12879;BME280;20617;49.476;10.986;2022-07-30T06:08:42;98289.19;;;19.56;73.38
12879;BME280;20617;49.476;10.986;2022-07-30T06:10:47;98289.34;;;19.77;72.56
12879;BME280;20617;49.476;10.986;2022-07-30T06:12:52;98285.84;;;19.88;72.15
12879;BME280;20617;49.476;10.986;2022-07-30T06:14:57;98285.09;;;19.97;71.36
12879;BME280;20617;49.476;10.986;2022-07-30T06:17:13;98290.88;;;20.02;71.06
12879;BME280;20617;49.476;10.986;2022-07-30T06:19:33;98289.31;;;19.88;70.66
12879;BME280;20617;49.476;10.986;2022-07-30T06:21:38;98295.44;;;19.89;70.88
12879;BME280;20617;49.476;10.986;2022-07-30T06:24:03;98295.81;;;19.96;70.77
12879;BME280;20617;49.476;10.986;2022-07-30T06:26:28;98300.38;;;19.94;70.94
12879;BME280;20617;49.476;10.986;2022-07-30T06:28:33;98294.00;;;19.96;70.63
12879;BME280;20617;49.476;10.986;2022-07-30T06:30:48;98296.16;;;20.02;70.44
12879;BME280;20617;49.476;10.986;2022-07-30T06:32:59;98297.59;;;20.06;70.84
12879;BME280;20617;49.476;10.986;2022-07-30T06:35:04;98284.22;;;20.19;70.63
12879;BME280;20617;49.476;10.986;2022-07-30T06:37:09;98294.91;;;20.18;69.98
12879;BME280;20617;49.476;10.986;2022-07-30T06:39:16;98284.81;;;20.23;70.14
12879;BME280;20617;49.476;10.986;2022-07-30T06:42:19;98290.09;;;20.23;68.58
12879;BME280;20617;49.476;10.986;2022-07-30T06:44:42;98291.66;;;20.25;69.11
12879;BME280;20617;49.476;10.986;2022-07-30T06:47:07;98283.09;;;20.33;68.34
12879;BME280;20617;49.476;10.986;2022-07-30T06:49:15;98279.31;;;20.47;68.50
12879;BME280;20617;49.476;10.986;2022-07-30T06:51:20;98279.06;;;20.61;68.15
12879;BME280;20617;49.476;10.986;2022-07-30T06:53:24;98277.59;;;20.68;67.16
12879;BME280;20617;49.476;10.986;2022-07-30T06:55:52;98293.63;;;20.55;67.32
12879;BME280;20617;49.476;10.986;2022-07-30T06:58:06;98284.75;;;20.45;67.92
12879;BME280;20617;49.476;10.986;2022-07-30T07:00:33;98293.88;;;20.41;66.44
12879;BME280;20617;49.476;10.986;2022-07-30T07:02:43;98294.81;;;20.51;67.06
12879;BME280;20617;49.476;10.986;2022-07-30T07:04:53;98296.41;;;20.54;66.14
12879;BME280;20617;49.476;10.986;2022-07-30T07:06:58;98301.69;;;20.54;67.00
12879;BME280;20617;49.476;10.986;2022-07-30T07:09:13;98288.81;;;20.49;67.43
12879;BME280;20617;49.476;10.986;2022-07-30T07:11:25;98289.53;;;20.51;66.86
12879;BME280;20617;49.476;10.986;2022-07-30T07:13:31;98299.28;;;20.51;66.35
12879;BME280;20617;49.476;10.986;2022-07-30T07:15:40;98295.94;;;20.38;67.26
12879;BME280;20617;49.476;10.986;2022-07-30T07:17:50;98298.81;;;20.46;67.41
12879;BME280;20617;49.476;10.986;2022-07-30T07:20:11;98295.84;;;20.39;67.87
12879;BME280;20617;49.476;10.986;2022-07-30T07:22:22;98305.66;;;20.60;67.08
12879;BME280;20617;49.476;10.986;2022-07-30T07:24:27;98305.41;;;20.63;66.38
12879;BME280;20617;49.476;10.986;2022-07-30T07:26:39;98308.06;;;20.84;65.99
12879;BME280;20617;49.476;10.986;2022-07-30T07:28:44;98309.41;;;20.99;65.60
12879;BME280;20617;49.476;10.986;2022-07-30T07:30:49;98306.91;;;20.97;64.92
12879;BME280;20617;49.476;10.986;2022-07-30T07:32:53;98312.63;;;21.02;64.84
12879;BME280;20617;49.476;10.986;2022-07-30T07:34:58;98314.97;;;21.17;64.10
12879;BME280;20617;49.476;10.986;2022-07-30T07:37:06;98301.03;;;21.15;63.28
12879;BME280;20617;49.476;10.986;2022-07-30T07:39:11;98310.94;;;21.22;62.70
12879;BME280;20617;49.476;10.986;2022-07-30T07:41:18;98308.19;;;21.24;61.90
12879;BME280;20617;49.476;10.986;2022-07-30T07:43:22;98314.88;;;21.28;61.91
12879;BME280;20617;49.476;10.986;2022-07-30T07:45:31;98311.88;;;21.33;62.28
12879;BME280;20617;49.476;10.986;2022-07-30T07:47:43;98308.31;;;21.43;62.13
12879;BME280;20617;49.476;10.986;2022-07-30T07:50:14;98312.44;;;21.67;62.10
12879;BME280;20617;49.476;10.986;2022-07-30T07:52:22;98311.56;;;21.87;60.87
12879;BME280;20617;49.476;10.986;2022-07-30T07:54:28;98313.97;;;21.90;60.40
12879;BME280;20617;49.476;10.986;2022-07-30T07:56:33;98314.91;;;21.89;60.41
12879;BME280;20617;49.476;10.986;2022-07-30T07:58:38;98312.03;;;22.02;59.15
12879;BME280;20617;49.476;10.986;2022-07-30T08:00:45;98316.84;;;21.87;59.09
12879;BME280;20617;49.476;10.986;2022-07-30T08:02:52;98308.22;;;21.85;59.18
12879;BME280;20617;49.476;10.986;2022-07-30T08:04:57;98317.81;;;21.77;61.42
12879;BME280;20617;49.476;10.986;2022-07-30T08:07:22;98318.53;;;21.79;61.57
12879;BME280;20617;49.476;10.986;2022-07-30T08:09:45;98321.91;;;21.90;61.03
12879;BME280;20617;49.476;10.986;2022-07-30T08:12:10;98318.84;;;21.95;60.37
12879;BME280;20617;49.476;10.986;2022-07-30T08:14:33;98326.97;;;21.73;58.89
12879;BME280;20617;49.476;10.986;2022-07-30T08:17:07;98326.06;;;21.83;59.69
12879;BME280;20617;49.476;10.986;2022-07-30T08:19:39;98329.59;;;21.93;59.91
12879;BME280;20617;49.476;10.986;2022-07-30T08:21:52;98326.72;;;21.76;60.54
12879;BME280;20617;49.476;10.986;2022-07-30T08:24:06;98326.31;;;21.80;60.29
12879;BME280;20617;49.476;10.986;2022-07-30T08:26:11;98323.47;;;22.03;59.62
12879;BME280;20617;49.476;10.986;2022-07-30T08:28:15;98328.53;;;22.15;59.29
12879;BME280;20617;49.476;10.986;2022-07-30T08:30:38;98327.69;;;22.15;59.79
12879;BME280;20617;49.476;10.986;2022-07-30T08:32:43;98331.00;;;21.98;60.12
12879;BME280;20617;49.476;10.986;2022-07-30T08:34:48;98330.97;;;21.88;60.98
12879;BME280;20617;49.476;10.986;2022-07-30T08:36:54;98319.66;;;21.86;60.47
12879;BME280;20617;49.476;10.986;2022-07-30T08:38:59;98331.81;;;21.98;60.31
12879;BME280;20617;49.476;10.986;2022-07-30T08:41:07;98336.66;;;21.83;60.75
12879;BME280;20617;49.476;10.986;2022-07-30T08:43:12;98339.06;;;21.56;61.54
12879;BME280;20617;49.476;10.986;2022-07-30T08:45:16;98338.69;;;21.39;61.71
12879;BME280;20617;49.476;10.986;2022-07-30T08:47:54;98340.81;;;21.45;61.65
12879;BME280;20617;49.476;10.986;2022-07-30T08:50:09;98341.06;;;21.42;61.68
12879;BME280;20617;49.476;10.986;2022-07-30T08:52:47;98348.94;;;21.54;61.39
12879;BME280;20617;49.476;10.986;2022-07-30T08:54:56;98346.41;;;21.52;61.71
12879;BME280;20617;49.476;10.986;2022-07-30T08:57:04;98354.56;;;21.39;62.15
12879;BME280;20617;49.476;10.986;2022-07-30T08:59:10;98348.84;;;21.23;62.74
12879;BME280;20617;49.476;10.986;2022-07-30T09:01:15;98352.75;;;21.19;63.24
12879;BME280;20617;49.476;10.986;2022-07-30T09:03:19;98350.63;;;21.13;63.14
12879;BME280;20617;49.476;10.986;2022-07-30T09:05:24;98356.69;;;21.24;62.42
12879;BME280;20617;49.476;10.986;2022-07-30T09:07:30;98358.63;;;21.43;62.09
12879;BME280;20617;49.476;10.986;2022-07-30T09:09:36;98362.31;;;21.52;60.99
12879;BME280;20617;49.476;10.986;2022-07-30T09:11:41;98352.38;;;21.75;59.72
12879;BME280;20617;49.476;10.986;2022-07-30T09:13:49;98350.81;;;21.93;59.50
12879;BME280;20617;49.476;10.986;2022-07-30T09:15:56;98358.38;;;22.08;57.89
12879;BME280;20617;49.476;10.986;2022-07-30T09:18:03;98358.38;;;22.08;57.71
12879;BME280;20617;49.476;10.986;2022-07-30T09:20:10;98355.41;;;22.01;58.18
12879;BME280;20617;49.476;10.986;2022-07-30T09:22:15;98361.72;;;22.10;56.93
12879;BME280;20617;49.476;10.986;2022-07-30T09:24:40;98367.75;;;22.12;56.89
12879;BME280;20617;49.476;10.986;2022-07-30T09:27:03;98365.19;;;22.31;56.29
12879;BME280;20617;49.476;10.986;2022-07-30T09:29:31;98360.59;;;22.53;55.12
12879;BME280;20617;49.476;10.986;2022-07-30T09:31:56;98357.81;;;22.64;55.50
12879;BME280;20617;49.476;10.986;2022-07-30T09:34:26;98359.09;;;22.79;55.96
12879;BME280;20617;49.476;10.986;2022-07-30T09:36:55;98360.47;;;22.64;56.26
12879;BME280;20617;49.476;10.986;2022-07-30T09:39:28;98352.53;;;22.54;56.57
12879;BME280;20617;49.476;10.986;2022-07-30T09:41:54;98354.47;;;22.62;55.41
12879;BME280;20617;49.476;10.986;2022-07-30T09:43:59;98354.47;;;22.91;54.17
12879;BME280;20617;49.476;10.986;2022-07-30T09:46:12;98347.91;;;23.15;53.49
12879;BME280;20617;49.476;10.986;2022-07-30T09:48:20;98349.00;;;23.32;52.29
12879;BME280;20617;49.476;10.986;2022-07-30T09:50:25;98346.91;;;23.35;52.35
12879;BME280;20617;49.476;10.986;2022-07-30T09:52:33;98344.41;;;23.34;52.02
12879;BME280;20617;49.476;10.986;2022-07-30T09:54:49;98348.59;;;23.26;49.59
12879;BME280;20617;49.476;10.986;2022-07-30T09:57:02;98345.97;;;23.17;50.73
12879;BME280;20617;49.476;10.986;2022-07-30T09:59:27;98348.59;;;23.26;51.43
12879;BME280;20617;49.476;10.986;2022-07-30T10:01:51;98350.00;;;23.21;51.11
12879;BME280;20617;49.476;10.986;2022-07-30T10:04:23;98349.63;;;22.96;51.62
12879;BME280;20617;49.476;10.986;2022-07-30T10:06:38;98343.84;;;22.91;52.34
12879;BME280;20617;49.476;10.986;2022-07-30T10:08:50;98353.94;;;22.97;51.31
12879;BME280;20617;49.476;10.986;2022-07-30T10:10:56;98351.13;;;23.18;51.71
12879;BME280;20617;49.476;10.986;2022-07-30T10:13:09;98350.66;;;23.52;50.28
12879;BME280;20617;49.476;10.986;2022-07-30T10:15:21;98349.63;;;23.72;50.07
12879;BME280;20617;49.476;10.986;2022-07-30T10:17:31;98351.19;;;23.65;48.20
12879;BME280;20617;49.476;10.986;2022-07-30T10:20:08;98344.22;;;23.55;47.84
12879;BME280;20617;49.476;10.986;2022-07-30T10:22:13;98347.41;;;23.58;47.26
12879;BME280;20617;49.476;10.986;2022-07-30T10:24:37;98342.72;;;23.42;47.83
12879;BME280;20617;49.476;10.986;2022-07-30T10:27:02;98339.81;;;23.26;48.77
12879;BME280;20617;49.476;10.986;2022-07-30T10:29:34;98337.56;;;23.31;48.89
12879;BME280;20617;49.476;10.986;2022-07-30T10:31:43;98332.50;;;23.47;48.96
12879;BME280;20617;49.476;10.986;2022-07-30T10:33:57;98336.19;;;23.64;49.48
12879;BME280;20617;49.476;10.986;2022-07-30T10:36:02;98328.91;;;23.76;48.85
12879;BME280;20617;49.476;10.986;2022-07-30T10:38:10;98330.84;;;23.84;48.95
12879;BME280;20617;49.476;10.986;2022-07-30T10:40:19;98328.00;;;23.95;49.18
12879;BME280;20617;49.476;10.986;2022-07-30T10:42:35;98330.16;;;23.82;47.93
12879;BME280;20617;49.476;10.986;2022-07-30T10:44:52;98330.59;;;23.77;46.96
12879;BME280;20617;49.476;10.986;2022-07-30T10:46:59;98329.16;;;24.10;47.02
12879;BME280;20617;49.476;10.986;2022-07-30T10:49:11;98330.00;;;24.38;45.73
12879;BME280;20617;49.476;10.986;2022-07-30T10:51:19;98329.66;;;24.69;44.69
12879;BME280;20617;49.476;10.986;2022-07-30T10:53:36;98334.66;;;24.54;44.85
12879;BME280;20617;49.476;10.986;2022-07-30T10:55:41;98326.31;;;24.67;44.74
12879;BME280;20617;49.476;10.986;2022-07-30T10:57:58;98329.34;;;24.54;45.39
12879;BME280;20617;49.476;10.986;2022-07-30T11:00:07;98341.38;;;24.31;45.54
12879;BME280;20617;49.476;10.986;2022-07-30T11:02:14;98333.41;;;24.03;46.23
12879;BME280;20617;49.476;10.986;2022-07-30T11:04:23;98333.84;;;23.99;47.08
12879;BME280;20617;49.476;10.986;2022-07-30T11:06:30;98342.56;;;23.91;47.24
12879;BME280;20617;49.476;10.986;2022-07-30T11:08:35;98331.53;;;23.86;48.14
12879;BME280;20617;49.476;10.986;2022-07-30T11:10:43;98323.56;;;23.86;47.78
12879;BME280;20617;49.476;10.986;2022-07-30T11:12:51;98336.81;;;23.95;47.24
12879;BME280;20617;49.476;10.986;2022-07-30T11:14:56;98331.06;;;24.00;46.44
12879;BME280;20617;49.476;10.986;2022-07-30T11:17:18;98335.22;;;24.03;46.26
12879;BME280;20617;49.476;10.986;2022-07-30T11:19:25;98339.03;;;24.00;46.29
12879;BME280;20617;49.476;10.986;2022-07-30T11:22:20;98332.56;;;24.03;46.56